Time;durP1;ratioP1;P1;durP2;ratioP2;P2;SDS_P1;SDS_P2;PMS_P1;PMS_P2;Temp;Humidity;BMP_temperature;BMP_pressure;BME280_temperature;BME280_humidity;BME280_pressure;Samples;Min_cycle;Max_cycle;Signal;HPM_P1;HPM_P2
2022/08/19 07:23:47;;;;;;;4.33;1.50;;;;;;;21.31;100.00;100313.72;1872352;75;21528;-77
2022/08/19 07:27:15;;;;;;;;;;;;;;;;;;;;;
2022/08/19 07:34:17;;;;;;;;;;;;;;;;;;;;;
2022/08/19 07:36:38;;;;;;;4.92;1.37;;;;;;;21.20;100.00;100326.00;1700150;84;21227;-76
2022/08/19 07:39:12;;;;;;;4.62;1.80;;;;;;;21.17;100.00;100318.75;1697313;81;21117;-76
2022/08/19 07:41:58;;;;;;;3.92;1.55;;;;;;;21.16;100.00;100322.29;1843875;78;21072;-76
2022/08/19 07:44:19;;;;;;;5.90;1.60;;;;;;;21.25;100.00;100319.26;1918732;74;21078;-76
2022/08/19 07:47:28;;;;;;;6.03;1.52;;;;;;;21.09;100.00;100325.20;1920713;74;21033;-76
2022/08/19 08:43:12;;;;;;;3.25;1.35;;;;;;;21.97;100.00;100403.37;1716598;80;21353;-81
2022/08/19 09:09:32;;;;;;;;;;;;;;;;;;;;;
2022/08/19 09:12:15;;;;;;;4.25;1.10;;;;;;;21.65;100.00;100389.64;1738336;80;21218;-78
2022/08/19 09:15:01;;;;;;;;;;;;;;;;;;;;;
2022/08/19 09:17:43;;;;;;;;;;;;;;;;;;;;;
2022/08/19 09:28:34;;;;;;;3.83;1.55;;;;;;;21.50;100.00;100364.62;1919652;73;21086;-78
2022/08/19 09:37:13;;;;;;;;;;;;;;;;;;;;;
2022/08/19 09:39:38;;;;;;;2.45;0.90;;;;;;;21.45;100.00;100361.39;1865435;75;21118;-80
2022/08/19 14:03:59;;;;;;;;;;;;;;;;;;;;;
2022/08/19 14:09:09;;;;;;;;;;;;;;;;;;;;;
2022/08/19 14:19:27;;;;;;;6.20;1.57;;;;;;;23.42;100.00;100575.47;1804849;79;21115;-77
2022/08/19 14:21:49;;;;;;;1.27;0.60;;;;;;;23.44;100.00;100586.25;1781407;79;21538;-78
2022/08/19 14:24:18;;;;;;;3.65;0.70;;;;;;;23.52;100.00;100578.45;1838400;78;21158;-78
2022/08/19 14:26:45;;;;;;;2.47;0.95;;;;;;;23.24;100.00;100572.87;1865419;73;21129;-78
2022/08/19 14:29:15;;;;;;;2.83;1.00;;;;;;;23.29;100.00;100569.54;1908958;75;21011;-78
2022/08/19 14:31:47;;;;;;;2.95;0.70;;;;;;;23.49;100.00;100561.56;1852359;75;21654;-78
2022/08/19 14:34:21;;;;;;;2.87;0.60;;;;;;;23.68;100.00;100557.02;1890216;75;21083;-78
2022/08/19 14:36:54;;;;;;;1.57;0.70;;;;;;;23.90;100.00;100553.22;1872476;76;21083;-77
2022/08/19 14:39:19;;;;;;;1.12;0.68;;;;;;;23.60;100.00;100564.45;1823766;77;21045;-78
2022/08/19 14:41:51;;;;;;;3.35;0.70;;;;;;;23.78;100.00;100563.09;1856853;76;21076;-78
2022/08/19 14:44:16;;;;;;;3.40;1.92;;;;;;;23.74;100.00;100560.25;1871927;76;21076;-78
2022/08/19 14:46:44;;;;;;;2.70;1.50;;;;;;;23.84;100.00;100561.42;1861930;76;21157;-78
2022/08/19 14:49:12;;;;;;;2.72;1.07;;;;;;;24.00;100.00;100567.98;1877805;76;21081;-77
2022/08/19 14:51:40;;;;;;;1.00;0.70;;;;;;;24.33;100.00;100564.41;1845160;76;21061;-77
2022/08/19 14:54:07;;;;;;;4.83;1.00;;;;;;;24.61;100.00;100573.77;1835392;77;21460;-77
2022/08/19 14:56:35;;;;;;;1.65;0.78;;;;;;;24.57;100.00;100587.56;1878112;76;21142;-77
2022/08/19 14:59:02;;;;;;;0.93;0.50;;;;;;;24.70;100.00;100606.08;1868607;74;21091;-77
2022/08/19 15:01:32;;;;;;;0.80;0.37;;;;;;;25.23;100.00;100572.77;1857151;76;21017;-77
2022/08/19 15:03:59;;;;;;;1.52;0.40;;;;;;;25.56;100.00;100576.52;1880062;76;21081;-77
2022/08/19 15:06:26;;;;;;;3.58;1.20;;;;;;;25.65;100.00;100581.70;1889320;76;21084;-77
2022/08/19 15:08:54;;;;;;;1.60;0.90;;;;;;;26.08;100.00;100585.55;1865896;76;21450;-77
2022/08/19 15:11:24;;;;;;;3.70;0.90;;;;;;;26.25;100.00;100593.67;1866210;75;21084;-77
2022/08/19 15:13:52;;;;;;;1.20;0.68;;;;;;;26.57;100.00;100603.05;1854546;76;21058;-77
2022/08/19 15:16:20;;;;;;;2.33;0.82;;;;;;;26.53;100.00;100620.86;1848820;76;21109;-77
2022/08/19 15:18:50;;;;;;;1.95;0.50;;;;;;;26.36;100.00;100629.01;1911003;73;21108;-77
2022/08/19 15:21:18;;;;;;;3.42;0.93;;;;;;;26.21;100.00;100632.14;1927691;74;21528;-76
2022/08/19 15:23:48;;;;;;;3.00;1.15;;;;;;;26.34;100.00;100621.20;1927627;73;21086;-77
2022/08/19 15:26:18;;;;;;;1.37;0.85;;;;;;;26.48;100.00;100641.38;1925731;73;21033;-76
2022/08/19 15:28:46;;;;;;;2.42;0.70;;;;;;;26.63;100.00;100637.37;1873347;75;21067;-76
2022/08/19 15:31:18;;;;;;;2.83;1.05;;;;;;;26.78;100.00;100637.67;1902350;74;21187;-76
2022/08/19 15:33:46;;;;;;;5.22;1.00;;;;;;;26.67;100.00;100657.30;1904467;74;21203;-76
2022/08/19 15:36:13;;;;;;;2.72;1.02;;;;;;;26.52;100.00;100687.64;1898220;75;21186;-76
2022/08/19 15:38:42;;;;;;;6.95;1.82;;;;;;;26.54;100.00;100744.18;1892792;74;21054;-76
2022/08/19 15:41:24;;;;;;;3.90;1.57;;;;;;;26.52;100.00;100775.06;1918862;74;21060;-75
2022/08/19 15:44:03;;;;;;;10.82;2.40;;;;;;;26.43;100.00;100773.84;1908193;74;21036;-76
2022/08/19 15:46:33;;;;;;;4.62;1.50;;;;;;;26.21;100.00;100758.52;1904142;73;21085;-76
2022/08/19 15:49:01;;;;;;;5.55;1.67;;;;;;;26.30;100.00;100741.34;1899405;75;21108;-77
2022/08/19 15:51:30;;;;;;;6.22;1.37;;;;;;;25.95;100.00;100748.66;1894586;74;21365;-76
2022/08/19 15:53:59;;;;;;;4.87;1.40;;;;;;;26.00;100.00;100744.44;1912624;73;21474;-76
2022/08/19 16:07:13;;;;;;;5.53;1.80;;;;;;;25.98;100.00;100749.80;1917471;74;21051;-76
2022/08/19 16:09:40;;;;;;;11.40;2.12;;;;;;;26.25;100.00;100785.03;1935667;73;21119;-76
2022/08/19 16:12:09;;;;;;;10.25;4.00;;;;;;;25.87;100.00;100776.78;1944135;73;21092;-76
2022/08/19 16:14:37;;;;;;;7.62;1.80;;;;;;;25.68;100.00;100789.34;1907382;74;21159;-76
2022/08/19 16:17:06;;;;;;;12.93;3.00;;;;;;;25.48;100.00;100805.80;1912534;73;21477;-76
2022/08/19 16:19:33;;;;;;;5.53;1.90;;;;;;;25.35;100.00;100803.03;1910168;74;21207;-76
2022/08/19 16:22:01;;;;;;;7.10;2.87;;;;;;;25.20;100.00;100797.72;1937393;73;21071;-76
2022/08/19 16:24:29;;;;;;;6.40;1.60;;;;;;;25.20;100.00;100800.34;1911591;73;21008;-76
2022/08/19 16:26:57;;;;;;;6.40;1.45;;;;;;;25.04;100.00;100831.92;1941911;73;20986;-76
2022/08/19 16:29:24;;;;;;;3.05;1.22;;;;;;;24.99;100.00;100861.54;1943532;72;21018;-75
2022/08/19 16:31:53;;;;;;;4.78;1.10;;;;;;;24.77;100.00;100946.77;1942343;73;21062;-76
2022/08/19 16:34:21;;;;;;;6.47;2.10;;;;;;;24.63;100.00;100957.16;1904441;74;21266;-75
2022/08/19 16:36:51;;;;;;;4.12;1.12;;;;;;;24.47;100.00;100953.55;1908539;73;21091;-75
2022/08/19 16:39:18;;;;;;;3.77;1.07;;;;;;;24.47;100.00;100946.98;1878297;74;21152;-76
2022/08/19 16:41:46;;;;;;;3.27;1.15;;;;;;;24.41;100.00;100987.16;1918628;73;21144;-75
2022/08/19 16:44:18;;;;;;;8.05;1.40;;;;;;;24.30;100.00;100990.34;1952425;72;21204;-76
2022/08/19 16:46:46;;;;;;;4.53;1.35;;;;;;;24.11;100.00;100978.12;1928133;73;21194;-76
2022/08/19 16:49:14;;;;;;;4.35;2.05;;;;;;;24.24;100.00;100981.45;1896479;74;21074;-76
2022/08/19 16:51:43;;;;;;;5.28;1.60;;;;;;;24.19;100.00;100975.11;1927664;73;21756;-76
2022/08/19 16:54:11;;;;;;;5.53;1.20;;;;;;;24.07;100.00;100971.30;1909336;74;21037;-76
2022/08/19 16:56:39;;;;;;;6.30;1.52;;;;;;;23.97;100.00;100995.84;1948344;73;21064;-75
2022/08/19 16:59:07;;;;;;;7.55;1.20;;;;;;;23.83;100.00;101008.31;1912702;74;21089;-75
2022/08/19 17:01:34;;;;;;;8.38;2.15;;;;;;;23.83;100.00;100997.38;1915092;75;21080;-75
2022/08/19 17:04:01;;;;;;;6.95;1.47;;;;;;;23.85;100.00;100988.12;1910984;74;21123;-76
2022/08/19 17:06:30;;;;;;;6.20;1.82;;;;;;;23.68;100.00;101015.98;1917010;75;21088;-76
2022/08/19 17:09:00;;;;;;;4.28;1.35;;;;;;;23.68;100.00;101015.98;1910651;74;21080;-76
2022/08/19 17:11:31;;;;;;;4.28;1.40;;;;;;;23.73;100.00;101016.22;1914509;75;21584;-76
2022/08/19 17:13:59;;;;;;;6.85;1.50;;;;;;;23.78;100.00;101005.90;1893616;74;21086;-77
2022/08/19 17:16:29;;;;;;;10.48;1.90;;;;;;;23.78;100.00;101005.90;1903268;74;21605;-77
2022/08/19 17:19:00;;;;;;;7.55;1.67;;;;;;;23.65;100.00;101006.11;1895050;74;21145;-77
2022/08/19 17:21:31;;;;;;;8.85;1.70;;;;;;;23.77;100.00;101008.59;1941301;73;21017;-77
2022/08/19 17:24:00;;;;;;;9.40;1.98;;;;;;;23.73;100.00;101003.11;1934396;72;21009;-78
2022/08/19 17:26:29;;;;;;;5.58;1.72;;;;;;;23.73;100.00;101003.11;1931058;73;21015;-77
2022/08/19 17:28:58;;;;;;;4.55;1.57;;;;;;;23.77;100.00;100998.10;1920056;73;21027;-77
2022/08/19 17:31:27;;;;;;;8.40;1.67;;;;;;;23.53;100.00;101004.90;1931345;73;21453;-77
2022/08/19 17:33:57;;;;;;;6.95;1.85;;;;;;;23.53;100.00;101004.90;1915296;74;21102;-77
2022/08/19 17:36:26;;;;;;;9.90;1.80;;;;;;;23.41;100.00;101022.93;1921158;73;21051;-77
2022/08/19 17:38:55;;;;;;;5.10;1.50;;;;;;;23.56;100.00;101019.19;1921141;73;21101;-77
2022/08/19 17:41:24;;;;;;;6.20;2.05;;;;;;;23.45;100.00;101023.17;1921108;73;21452;-78
2022/08/19 17:43:52;;;;;;;6.20;3.15;;;;;;;23.45;100.00;101021.00;1921358;73;21035;-77
2022/08/19 17:46:20;;;;;;;6.22;1.50;;;;;;;23.45;100.00;101020.55;1934399;73;21095;-77
2022/08/19 17:48:50;;;;;;;9.43;1.82;;;;;;;23.44;100.00;101018.00;1940281;73;21076;-77
2022/08/19 17:51:20;;;;;;;4.05;1.50;;;;;;;23.28;100.00;101038.78;1943177;73;21441;-77
2022/08/19 17:53:53;;;;;;;7.60;1.67;;;;;;;23.28;100.00;101038.78;1919438;73;21048;-77
2022/08/19 17:56:19;;;;;;;5.50;1.77;;;;;;;23.39;100.00;101038.31;1946004;73;21565;-77
2022/08/19 17:58:46;;;;;;;11.30;2.83;;;;;;;23.21;100.00;101048.70;1921277;73;21118;-77
2022/08/19 18:01:15;;;;;;;9.05;1.90;;;;;;;23.18;100.00;101044.45;1940203;73;21165;-78
2022/08/19 18:03:43;;;;;;;13.18;2.30;;;;;;;23.01;100.00;101046.50;1908956;74;21067;-77
2022/08/19 18:06:11;;;;;;;5.80;1.52;;;;;;;22.82;100.00;101068.72;1929425;72;21104;-77
2022/08/19 18:08:39;;;;;;;8.33;2.20;;;;;;;23.05;100.00;101074.75;1927970;73;21028;-77
2022/08/19 18:11:08;;;;;;;4.95;1.75;;;;;;;22.90;100.00;101066.63;1910225;74;20984;-77
2022/08/19 18:13:37;;;;;;;6.17;1.60;;;;;;;22.97;100.00;101057.17;1938380;74;21141;-77
2022/08/19 18:16:11;;;;;;;3.95;1.70;;;;;;;22.93;100.00;101055.16;1909095;74;21049;-77
2022/08/19 18:18:34;;;;;;;7.90;2.08;;;;;;;22.97;100.00;101053.23;1908214;74;21069;-77
2022/08/19 18:21:02;;;;;;;8.53;1.70;;;;;;;22.87;100.00;101045.80;1918240;73;21209;-77
2022/08/19 18:23:30;;;;;;;13.90;2.60;;;;;;;22.75;100.00;101045.88;1911783;75;21558;-77
2022/08/19 18:25:57;;;;;;;10.90;3.27;;;;;;;22.82;100.00;101047.77;1902748;75;21055;-77
2022/08/19 18:28:25;;;;;;;7.53;1.80;;;;;;;22.63;100.00;101056.41;1927954;74;21124;-77
2022/08/19 18:30:53;;;;;;;14.35;1.92;;;;;;;22.63;100.00;101056.41;1918860;73;21182;-77
2022/08/19 18:33:20;;;;;;;7.87;2.08;;;;;;;22.68;100.00;101050.98;1925790;74;21577;-77
2022/08/19 18:35:51;;;;;;;8.30;1.57;;;;;;;22.33;100.00;101052.82;1929142;73;21113;-77
2022/08/19 18:49:26;;;;;;;10.63;2.25;;;;;;;22.20;100.00;101042.44;1931265;72;21132;-78
2022/08/19 18:51:55;;;;;;;8.65;1.60;;;;;;;22.07;100.00;101045.55;1927643;73;21085;-77
2022/08/19 18:54:23;;;;;;;8.70;1.98;;;;;;;21.84;100.00;101046.00;1938271;73;21720;-77
2022/08/19 18:56:54;;;;;;;17.90;3.58;;;;;;;22.04;100.00;101043.05;1888725;75;21055;-77
2022/08/19 18:59:27;;;;;;;7.95;1.60;;;;;;;22.06;100.00;101042.99;1926868;73;21088;-77
2022/08/19 19:02:00;;;;;;;8.25;1.70;;;;;;;22.03;100.00;101046.14;1936757;74;21123;-78
2022/08/19 19:04:32;;;;;;;7.40;1.82;;;;;;;22.03;100.00;101046.14;1903755;74;21115;-77
2022/08/19 19:06:59;;;;;;;11.03;4.00;;;;;;;21.97;100.00;101043.76;1934713;74;21066;-77
2022/08/19 19:09:26;;;;;;;12.98;2.10;;;;;;;21.75;100.00;101036.77;1883552;75;21017;-78
2022/08/19 19:11:57;;;;;;;9.33;1.95;;;;;;;21.55;100.00;101053.17;1890627;75;21583;-78
2022/08/19 19:14:30;;;;;;;10.15;1.80;;;;;;;21.55;100.00;101062.32;1905500;75;21046;-77
2022/08/19 19:16:57;;;;;;;8.48;2.15;;;;;;;21.31;100.00;101053.64;1906748;74;21061;-77
2022/08/19 19:19:26;;;;;;;7.10;1.72;;;;;;;21.32;100.00;101047.50;1888099;75;21042;-78
2022/08/19 19:21:53;;;;;;;8.48;2.40;;;;;;;21.31;100.00;101048.42;1885473;74;21154;-78
2022/08/19 19:24:24;;;;;;;7.17;1.82;;;;;;;21.17;100.00;101046.28;1920689;74;21063;-77
2022/08/19 19:26:52;;;;;;;7.37;2.85;;;;;;;21.13;100.00;101050.77;1903620;74;21099;-78
2022/08/19 19:29:21;;;;;;;18.98;3.22;;;;;;;20.90;100.00;101039.84;1905764;74;21069;-77
2022/08/19 19:31:54;;;;;;;9.65;2.20;;;;;;;21.01;100.00;101039.84;1908482;74;21648;-77
2022/08/19 19:34:20;;;;;;;14.18;2.35;;;;;;;21.05;100.00;101043.22;1922982;74;21166;-78
2022/08/19 19:36:51;;;;;;;8.33;1.75;;;;;;;21.13;100.00;101046.85;1926248;73;21020;-77
2022/08/19 19:39:21;;;;;;;8.30;2.65;;;;;;;21.00;100.00;101043.81;1921987;74;21453;-77
2022/08/19 19:41:48;;;;;;;16.02;2.10;;;;;;;20.96;100.00;101039.61;1905620;74;21607;-77
2022/08/19 19:44:16;;;;;;;8.45;2.77;;;;;;;20.86;100.00;101039.91;1905437;74;21090;-77
2022/08/19 19:46:44;;;;;;;17.48;2.75;;;;;;;20.72;100.00;101039.08;1922615;74;21012;-77
2022/08/19 19:49:12;;;;;;;8.35;3.17;;;;;;;20.69;100.00;101035.73;1931862;74;21465;-77
2022/08/19 19:51:41;;;;;;;9.68;2.10;;;;;;;20.61;100.00;101026.41;1905900;74;21554;-77
2022/08/19 19:54:13;;;;;;;11.60;2.33;;;;;;;20.62;100.00;101021.58;1905908;74;21048;-77
2022/08/19 19:56:49;;;;;;;19.02;5.65;;;;;;;20.56;100.00;101027.47;1922372;74;21086;-78
2022/08/19 19:59:14;;;;;;;7.85;1.95;;;;;;;20.36;100.00;101033.73;1936593;74;21241;-78
2022/08/19 20:01:44;;;;;;;11.20;2.60;;;;;;;20.22;100.00;101034.64;1906010;74;21088;-77
2022/08/19 20:04:10;;;;;;;13.30;2.62;;;;;;;20.25;100.00;101028.03;1905846;74;21514;-77
2022/08/19 20:06:38;;;;;;;10.53;2.10;;;;;;;20.16;100.00;101032.22;1905768;74;21092;-77
2022/08/19 20:09:14;;;;;;;7.58;2.05;;;;;;;20.13;100.00;101037.56;1928204;74;21116;-77
2022/08/19 20:11:46;;;;;;;10.40;2.67;;;;;;;20.19;100.00;101036.04;1911411;74;21209;-78
2022/08/19 20:14:17;;;;;;;7.90;2.10;;;;;;;20.14;100.00;101036.65;1938776;74;21000;-77
2022/08/19 20:16:46;;;;;;;5.37;1.92;;;;;;;19.92;100.00;101039.44;1939304;74;21087;-78
2022/08/19 20:19:36;;;;;;;6.53;1.60;;;;;;;19.95;100.00;101030.66;1925125;73;21094;-79
2022/08/19 20:22:06;;;;;;;11.68;2.85;;;;;;;19.98;100.00;101031.44;1892442;74;21186;-78
2022/08/19 20:24:37;;;;;;;16.00;4.35;;;;;;;19.78;100.00;101020.75;1931624;74;21108;-78
2022/08/19 20:27:16;;;;;;;;;;;;;;;;;;;;;
2022/08/19 20:29:48;;;;;;;;;;;;;;;;;;;;;
2022/08/19 20:34:47;;;;;;;11.10;2.12;;;;;;;19.64;100.00;100995.97;1861120;76;21107;-79
2022/08/19 20:37:23;;;;;;;;;;;;;;;;;;;;;
2022/08/19 20:39:54;;;;;;;;;;;;;;;;;;;;;
2022/08/19 20:42:34;;;;;;;9.30;2.02;;;;;;;19.49;100.00;100982.96;1895360;74;21126;-81
2022/08/19 20:45:06;;;;;;;14.70;2.60;;;;;;;19.55;100.00;100987.97;1911773;74;21102;-79
